sensor_id;sensor_type;location;lat;lon;timestamp;temperature;humidity
32293;DHT22;43233;48.608;8.838;2022-12-19T00:02:05;-2.80;79.40
32293;DHT22;43233;48.608;8.838;2022-12-19T00:04:32;-2.70;79.40
32293;DHT22;43233;48.608;8.838;2022-12-19T00:06:57;-2.70;79.40
32293;DHT22;43233;48.608;8.838;2022-12-19T00:09:24;-2.70;79.40
32293;DHT22;43233;48.608;8.838;2022-12-19T00:11:50;-2.70;79.70
32293;DHT22;43233;48.608;8.838;2022-12-19T00:14:15;-2.70;79.80
32293;DHT22;43233;48.608;8.838;2022-12-19T00:16:41;-2.60;79.70
32293;DHT22;43233;48.608;8.838;2022-12-19T00:19:09;-2.60;79.10
32293;DHT22;43233;48.608;8.838;2022-12-19T00:21:36;-2.60;79.40
32293;DHT22;43233;48.608;8.838;2022-12-19T00:24:06;-2.70;79.90
32293;DHT22;43233;48.608;8.838;2022-12-19T00:26:34;-2.60;80.20
32293;DHT22;43233;48.608;8.838;2022-12-19T00:29:04;-2.60;79.90
32293;DHT22;43233;48.608;8.838;2022-12-19T00:31:32;-2.50;79.90
32293;DHT22;43233;48.608;8.838;2022-12-19T00:33:58;-2.60;79.60
32293;DHT22;43233;48.608;8.838;2022-12-19T00:36:30;-2.50;80.00
32293;DHT22;43233;48.608;8.838;2022-12-19T00:38:58;-2.50;80.00
32293;DHT22;43233;48.608;8.838;2022-12-19T00:41:26;-2.50;79.90
32293;DHT22;43233;48.608;8.838;2022-12-19T00:43:57;-2.50;79.80
32293;DHT22;43233;48.608;8.838;2022-12-19T00:46:23;-2.50;79.70
32293;DHT22;43233;48.608;8.838;2022-12-19T00:48:49;-2.40;79.50
32293;DHT22;43233;48.608;8.838;2022-12-19T00:51:17;-2.40;79.20
32293;DHT22;43233;48.608;8.838;2022-12-19T00:53:44;-2.40;79.40
32293;DHT22;43233;48.608;8.838;2022-12-19T00:56:15;-2.40;79.30
32293;DHT22;43233;48.608;8.838;2022-12-19T00:58:41;-2.40;79.20
32293;DHT22;43233;48.608;8.838;2022-12-19T01:01:12;-2.40;79.70
32293;DHT22;43233;48.608;8.838;2022-12-19T01:03:38;-2.40;79.40
32293;DHT22;43233;48.608;8.838;2022-12-19T01:06:04;-2.40;79.90
32293;DHT22;43233;48.608;8.838;2022-12-19T01:08:30;-2.40;80.10
32293;DHT22;43233;48.608;8.838;2022-12-19T01:10:56;-2.40;80.30
32293;DHT22;43233;48.608;8.838;2022-12-19T01:13:23;-2.30;80.60
32293;DHT22;43233;48.608;8.838;2022-12-19T01:15:49;-2.30;80.80
32293;DHT22;43233;48.608;8.838;2022-12-19T01:18:14;-2.30;81.00
32293;DHT22;43233;48.608;8.838;2022-12-19T01:20:41;-2.30;81.10
32293;DHT22;43233;48.608;8.838;2022-12-19T01:23:08;-2.20;80.80
32293;DHT22;43233;48.608;8.838;2022-12-19T01:25:35;-2.20;80.80
32293;DHT22;43233;48.608;8.838;2022-12-19T01:28:01;-2.20;80.70
32293;DHT22;43233;48.608;8.838;2022-12-19T01:30:27;-2.10;80.70
32293;DHT22;43233;48.608;8.838;2022-12-19T01:32:53;-2.10;80.20
32293;DHT22;43233;48.608;8.838;2022-12-19T01:35:19;-1.90;79.50
32293;DHT22;43233;48.608;8.838;2022-12-19T01:37:44;-1.90;78.70
32293;DHT22;43233;48.608;8.838;2022-12-19T01:40:13;-1.90;78.90
32293;DHT22;43233;48.608;8.838;2022-12-19T01:42:39;-1.90;79.50
32293;DHT22;43233;48.608;8.838;2022-12-19T01:47:44;-1.90;79.10
32293;DHT22;43233;48.608;8.838;2022-12-19T01:50:14;-1.90;78.80
32293;DHT22;43233;48.608;8.838;2022-12-19T01:52:41;-2.00;78.90
32293;DHT22;43233;48.608;8.838;2022-12-19T01:55:07;-2.00;79.20
32293;DHT22;43233;48.608;8.838;2022-12-19T01:57:33;-2.00;79.40
32293;DHT22;43233;48.608;8.838;2022-12-19T02:00:00;-2.00;80.10
32293;DHT22;43233;48.608;8.838;2022-12-19T02:02:31;-2.00;80.20
32293;DHT22;43233;48.608;8.838;2022-12-19T02:04:57;-2.00;80.00
32293;DHT22;43233;48.608;8.838;2022-12-19T02:07:26;-2.10;80.20
32293;DHT22;43233;48.608;8.838;2022-12-19T02:09:54;-2.00;80.40
32293;DHT22;43233;48.608;8.838;2022-12-19T02:12:21;-2.10;80.60
32293;DHT22;43233;48.608;8.838;2022-12-19T02:14:47;-2.00;80.20
32293;DHT22;43233;48.608;8.838;2022-12-19T02:17:28;-2.00;80.40
32293;DHT22;43233;48.608;8.838;2022-12-19T02:22:48;-1.90;80.40
32293;DHT22;43233;48.608;8.838;2022-12-19T02:35:57;-1.70;80.30
32293;DHT22;43233;48.608;8.838;2022-12-19T02:41:11;-1.70;79.80
32293;DHT22;43233;48.608;8.838;2022-12-19T02:43:43;-1.70;80.10
32293;DHT22;43233;48.608;8.838;2022-12-19T02:46:10;-1.70;80.60
32293;DHT22;43233;48.608;8.838;2022-12-19T02:48:37;-1.70;80.70
32293;DHT22;43233;48.608;8.838;2022-12-19T02:51:03;-1.80;81.20
32293;DHT22;43233;48.608;8.838;2022-12-19T02:53:29;-1.90;81.70
32293;DHT22;43233;48.608;8.838;2022-12-19T02:56:21;-1.90;82.40
32293;DHT22;43233;48.608;8.838;2022-12-19T03:01:44;-1.90;82.50
32293;DHT22;43233;48.608;8.838;2022-12-19T03:09:51;-1.80;82.80
32293;DHT22;43233;48.608;8.838;2022-12-19T03:12:33;-1.80;83.10
32293;DHT22;43233;48.608;8.838;2022-12-19T03:15:01;-1.70;83.10
32293;DHT22;43233;48.608;8.838;2022-12-19T03:17:27;-1.70;83.10
32293;DHT22;43233;48.608;8.838;2022-12-19T03:19:54;-1.60;83.00
32293;DHT22;43233;48.608;8.838;2022-12-19T03:22:21;-1.60;83.10
32293;DHT22;43233;48.608;8.838;2022-12-19T03:24:46;-1.60;83.00
32293;DHT22;43233;48.608;8.838;2022-12-19T03:27:19;-1.60;83.00
32293;DHT22;43233;48.608;8.838;2022-12-19T03:32:17;-1.50;82.60
32293;DHT22;43233;48.608;8.838;2022-12-19T03:37:14;-1.50;82.60
32293;DHT22;43233;48.608;8.838;2022-12-19T03:39:42;-1.40;82.60
32293;DHT22;43233;48.608;8.838;2022-12-19T03:42:11;-1.40;82.30
32293;DHT22;43233;48.608;8.838;2022-12-19T03:44:56;-1.40;82.20
32293;DHT22;43233;48.608;8.838;2022-12-19T03:47:36;-1.30;82.10
32293;DHT22;43233;48.608;8.838;2022-12-19T03:50:04;-1.30;82.90
32293;DHT22;43233;48.608;8.838;2022-12-19T03:52:57;-1.30;82.70
32293;DHT22;43233;48.608;8.838;2022-12-19T03:57:59;-1.20;82.00
32293;DHT22;43233;48.608;8.838;2022-12-19T04:00:28;-1.20;82.50
32293;DHT22;43233;48.608;8.838;2022-12-19T04:02:55;-1.20;82.50
32293;DHT22;43233;48.608;8.838;2022-12-19T04:05:24;-1.10;82.40
32293;DHT22;43233;48.608;8.838;2022-12-19T04:07:52;-1.10;82.50
32293;DHT22;43233;48.608;8.838;2022-12-19T04:10:22;-1.10;82.60
32293;DHT22;43233;48.608;8.838;2022-12-19T04:13:12;-1.10;82.70
32293;DHT22;43233;48.608;8.838;2022-12-19T04:18:23;-1.00;82.90
32293;DHT22;43233;48.608;8.838;2022-12-19T04:20:57;-1.10;82.60
32293;DHT22;43233;48.608;8.838;2022-12-19T04:23:55;-1.10;82.70
32293;DHT22;43233;48.608;8.838;2022-12-19T04:26:19;-1.00;83.90
32293;DHT22;43233;48.608;8.838;2022-12-19T04:28:53;-1.00;83.70
32293;DHT22;43233;48.608;8.838;2022-12-19T04:31:20;-1.00;83.40
32293;DHT22;43233;48.608;8.838;2022-12-19T04:33:46;-0.90;84.30
32293;DHT22;43233;48.608;8.838;2022-12-19T04:36:11;-0.90;84.10
32293;DHT22;43233;48.608;8.838;2022-12-19T04:38:37;-0.90;84.10
32293;DHT22;43233;48.608;8.838;2022-12-19T04:41:03;-0.90;83.90
32293;DHT22;43233;48.608;8.838;2022-12-19T04:43:28;-0.80;84.00
32293;DHT22;43233;48.608;8.838;2022-12-19T04:45:54;-0.80;84.10
32293;DHT22;43233;48.608;8.838;2022-12-19T04:48:20;-0.80;84.00
32293;DHT22;43233;48.608;8.838;2022-12-19T04:50:46;-0.80;84.20
32293;DHT22;43233;48.608;8.838;2022-12-19T04:53:11;-0.80;84.50
32293;DHT22;43233;48.608;8.838;2022-12-19T04:55:37;-0.80;84.70
32293;DHT22;43233;48.608;8.838;2022-12-19T04:58:06;-0.70;84.90
32293;DHT22;43233;48.608;8.838;2022-12-19T05:00:32;-0.70;84.90
32293;DHT22;43233;48.608;8.838;2022-12-19T05:02:58;-0.70;84.50
32293;DHT22;43233;48.608;8.838;2022-12-19T05:05:24;-0.60;84.50
32293;DHT22;43233;48.608;8.838;2022-12-19T05:07:49;-0.50;84.70
32293;DHT22;43233;48.608;8.838;2022-12-19T05:10:16;-0.50;84.70
32293;DHT22;43233;48.608;8.838;2022-12-19T05:12:41;-0.60;85.10
32293;DHT22;43233;48.608;8.838;2022-12-19T05:15:08;-0.60;86.10
32293;DHT22;43233;48.608;8.838;2022-12-19T05:17:34;-0.60;85.30
32293;DHT22;43233;48.608;8.838;2022-12-19T05:19:59;-0.50;85.60
32293;DHT22;43233;48.608;8.838;2022-12-19T05:22:25;-0.50;85.30
32293;DHT22;43233;48.608;8.838;2022-12-19T05:24:51;-0.50;85.40
32293;DHT22;43233;48.608;8.838;2022-12-19T05:27:16;-0.50;85.60
32293;DHT22;43233;48.608;8.838;2022-12-19T05:29:42;-0.40;85.50
32293;DHT22;43233;48.608;8.838;2022-12-19T05:32:07;-0.40;85.30
32293;DHT22;43233;48.608;8.838;2022-12-19T05:34:33;-0.40;85.30
32293;DHT22;43233;48.608;8.838;2022-12-19T05:36:59;-0.40;85.30
32293;DHT22;43233;48.608;8.838;2022-12-19T05:39:27;-0.40;85.10
32293;DHT22;43233;48.608;8.838;2022-12-19T05:41:52;-0.40;85.40
32293;DHT22;43233;48.608;8.838;2022-12-19T05:44:18;-0.40;85.30
32293;DHT22;43233;48.608;8.838;2022-12-19T05:46:44;-0.30;85.60
32293;DHT22;43233;48.608;8.838;2022-12-19T05:49:10;-0.30;85.50
32293;DHT22;43233;48.608;8.838;2022-12-19T05:51:36;-0.30;85.80
32293;DHT22;43233;48.608;8.838;2022-12-19T05:54:02;-0.30;85.60
32293;DHT22;43233;48.608;8.838;2022-12-19T05:56:28;-0.30;85.80
32293;DHT22;43233;48.608;8.838;2022-12-19T05:58:53;-0.30;86.00
32293;DHT22;43233;48.608;8.838;2022-12-19T06:01:20;-0.30;85.90
32293;DHT22;43233;48.608;8.838;2022-12-19T06:03:47;-0.30;85.50
32293;DHT22;43233;48.608;8.838;2022-12-19T06:06:16;-0.20;85.20
32293;DHT22;43233;48.608;8.838;2022-12-19T06:08:42;-0.20;85.20
32293;DHT22;43233;48.608;8.838;2022-12-19T06:11:09;-0.20;85.20
32293;DHT22;43233;48.608;8.838;2022-12-19T06:13:36;-0.10;85.50
32293;DHT22;43233;48.608;8.838;2022-12-19T06:16:11;-0.20;85.00
32293;DHT22;43233;48.608;8.838;2022-12-19T06:18:38;-0.10;85.10
32293;DHT22;43233;48.608;8.838;2022-12-19T06:21:06;-0.10;85.10
32293;DHT22;43233;48.608;8.838;2022-12-19T06:23:34;-0.10;85.10
32293;DHT22;43233;48.608;8.838;2022-12-19T06:26:01;-0.10;84.80
32293;DHT22;43233;48.608;8.838;2022-12-19T06:28:28;-0.10;85.10
32293;DHT22;43233;48.608;8.838;2022-12-19T06:31:01;-0.10;85.40
32293;DHT22;43233;48.608;8.838;2022-12-19T06:33:29;-0.10;85.60
32293;DHT22;43233;48.608;8.838;2022-12-19T06:36:02;0.00;85.70
32293;DHT22;43233;48.608;8.838;2022-12-19T06:38:29;0.00;85.40
32293;DHT22;43233;48.608;8.838;2022-12-19T06:40:55;0.00;85.70
32293;DHT22;43233;48.608;8.838;2022-12-19T06:43:39;0.00;86.20
32293;DHT22;43233;48.608;8.838;2022-12-19T06:46:05;-0.10;86.20
32293;DHT22;43233;48.608;8.838;2022-12-19T06:48:31;-0.10;86.80
32293;DHT22;43233;48.608;8.838;2022-12-19T06:50:56;0.00;87.00
32293;DHT22;43233;48.608;8.838;2022-12-19T06:53:22;-0.10;86.60
32293;DHT22;43233;48.608;8.838;2022-12-19T06:55:49;0.00;86.50
32293;DHT22;43233;48.608;8.838;2022-12-19T06:58:15;0.00;86.10
32293;DHT22;43233;48.608;8.838;2022-12-19T07:00:41;0.00;85.70
32293;DHT22;43233;48.608;8.838;2022-12-19T07:03:10;0.00;85.90
32293;DHT22;43233;48.608;8.838;2022-12-19T07:05:37;0.00;85.90
32293;DHT22;43233;48.608;8.838;2022-12-19T07:08:04;0.10;86.00
32293;DHT22;43233;48.608;8.838;2022-12-19T07:10:30;0.10;86.00
32293;DHT22;43233;48.608;8.838;2022-12-19T07:12:55;0.10;85.40
32293;DHT22;43233;48.608;8.838;2022-12-19T07:15:21;0.10;85.20
32293;DHT22;43233;48.608;8.838;2022-12-19T07:17:47;0.10;85.40
32293;DHT22;43233;48.608;8.838;2022-12-19T07:20:14;0.10;85.10
32293;DHT22;43233;48.608;8.838;2022-12-19T07:22:40;0.10;84.80
32293;DHT22;43233;48.608;8.838;2022-12-19T07:25:07;0.20;85.10
32293;DHT22;43233;48.608;8.838;2022-12-19T07:27:34;0.20;85.20
32293;DHT22;43233;48.608;8.838;2022-12-19T07:30:00;0.30;85.30
32293;DHT22;43233;48.608;8.838;2022-12-19T07:32:26;0.20;85.50
32293;DHT22;43233;48.608;8.838;2022-12-19T07:34:53;0.20;85.50
32293;DHT22;43233;48.608;8.838;2022-12-19T07:37:19;0.20;85.30
32293;DHT22;43233;48.608;8.838;2022-12-19T07:39:46;0.20;84.90
32293;DHT22;43233;48.608;8.838;2022-12-19T07:42:12;0.30;85.10
32293;DHT22;43233;48.608;8.838;2022-12-19T07:44:37;0.20;85.00
32293;DHT22;43233;48.608;8.838;2022-12-19T07:47:03;0.30;85.40
32293;DHT22;43233;48.608;8.838;2022-12-19T07:49:29;0.30;85.10
32293;DHT22;43233;48.608;8.838;2022-12-19T07:51:54;0.30;84.90
32293;DHT22;43233;48.608;8.838;2022-12-19T07:54:20;0.30;85.70
32293;DHT22;43233;48.608;8.838;2022-12-19T07:56:46;0.30;86.00
32293;DHT22;43233;48.608;8.838;2022-12-19T07:59:11;0.40;85.50
32293;DHT22;43233;48.608;8.838;2022-12-19T08:01:40;0.40;85.00
32293;DHT22;43233;48.608;8.838;2022-12-19T08:04:06;0.40;84.90
32293;DHT22;43233;48.608;8.838;2022-12-19T08:06:31;0.40;84.70
32293;DHT22;43233;48.608;8.838;2022-12-19T08:08:57;0.50;85.50
32293;DHT22;43233;48.608;8.838;2022-12-19T08:11:22;0.50;85.10
32293;DHT22;43233;48.608;8.838;2022-12-19T08:13:52;0.50;85.40
32293;DHT22;43233;48.608;8.838;2022-12-19T08:16:18;0.50;84.90
32293;DHT22;43233;48.608;8.838;2022-12-19T08:18:44;0.60;85.40
32293;DHT22;43233;48.608;8.838;2022-12-19T08:21:10;0.60;85.40
32293;DHT22;43233;48.608;8.838;2022-12-19T08:26:06;0.60;84.50
32293;DHT22;43233;48.608;8.838;2022-12-19T08:28:33;0.80;85.60
32293;DHT22;43233;48.608;8.838;2022-12-19T08:31:04;0.80;86.20
32293;DHT22;43233;48.608;8.838;2022-12-19T08:33:30;0.80;85.80
32293;DHT22;43233;48.608;8.838;2022-12-19T08:35:55;0.80;86.20
32293;DHT22;43233;48.608;8.838;2022-12-19T08:38:21;0.90;86.70
32293;DHT22;43233;48.608;8.838;2022-12-19T08:40:53;1.00;86.80
32293;DHT22;43233;48.608;8.838;2022-12-19T08:43:19;1.00;86.20
32293;DHT22;43233;48.608;8.838;2022-12-19T08:45:47;1.10;86.10
32293;DHT22;43233;48.608;8.838;2022-12-19T08:48:13;1.20;85.90
32293;DHT22;43233;48.608;8.838;2022-12-19T08:50:38;1.20;85.50
32293;DHT22;43233;48.608;8.838;2022-12-19T08:53:04;1.20;85.50
32293;DHT22;43233;48.608;8.838;2022-12-19T08:55:30;1.30;85.50
32293;DHT22;43233;48.608;8.838;2022-12-19T08:57:55;1.30;85.20
32293;DHT22;43233;48.608;8.838;2022-12-19T09:00:21;1.40;84.80
32293;DHT22;43233;48.608;8.838;2022-12-19T09:02:47;1.40;84.50
32293;DHT22;43233;48.608;8.838;2022-12-19T09:05:12;1.40;84.10
32293;DHT22;43233;48.608;8.838;2022-12-19T09:07:39;1.40;83.50
32293;DHT22;43233;48.608;8.838;2022-12-19T09:10:05;1.40;83.40
32293;DHT22;43233;48.608;8.838;2022-12-19T09:12:32;1.50;83.70
32293;DHT22;43233;48.608;8.838;2022-12-19T09:14:57;1.50;83.80
32293;DHT22;43233;48.608;8.838;2022-12-19T09:17:23;1.60;83.60
32293;DHT22;43233;48.608;8.838;2022-12-19T09:19:49;1.60;83.50
32293;DHT22;43233;48.608;8.838;2022-12-19T09:22:15;1.70;83.50
32293;DHT22;43233;48.608;8.838;2022-12-19T09:24:41;1.70;83.30
32293;DHT22;43233;48.608;8.838;2022-12-19T09:27:06;1.80;82.90
32293;DHT22;43233;48.608;8.838;2022-12-19T09:29:32;1.80;82.50
32293;DHT22;43233;48.608;8.838;2022-12-19T09:31:57;1.80;82.50
32293;DHT22;43233;48.608;8.838;2022-12-19T09:34:27;1.80;82.80
32293;DHT22;43233;48.608;8.838;2022-12-19T09:36:55;1.90;82.10
32293;DHT22;43233;48.608;8.838;2022-12-19T09:39:20;1.80;82.50
32293;DHT22;43233;48.608;8.838;2022-12-19T09:47:29;1.80;83.20
32293;DHT22;43233;48.608;8.838;2022-12-19T09:49:57;1.80;83.20
32293;DHT22;43233;48.608;8.838;2022-12-19T09:52:40;1.80;83.40
32293;DHT22;43233;48.608;8.838;2022-12-19T09:55:23;1.90;83.10
32293;DHT22;43233;48.608;8.838;2022-12-19T09:58:20;1.90;83.20
32293;DHT22;43233;48.608;8.838;2022-12-19T10:00:54;2.00;83.50
32293;DHT22;43233;48.608;8.838;2022-12-19T10:03:28;2.10;83.20
32293;DHT22;43233;48.608;8.838;2022-12-19T10:06:17;2.10;83.00
32293;DHT22;43233;48.608;8.838;2022-12-19T10:08:44;2.10;83.30
32293;DHT22;43233;48.608;8.838;2022-12-19T10:25:26;2.40;83.20
32293;DHT22;43233;48.608;8.838;2022-12-19T10:27:58;2.40;82.60
32293;DHT22;43233;48.608;8.838;2022-12-19T10:30:34;2.50;82.40
32293;DHT22;43233;48.608;8.838;2022-12-19T10:35:41;2.70;82.10
32293;DHT22;43233;48.608;8.838;2022-12-19T10:40:43;2.80;81.90
32293;DHT22;43233;48.608;8.838;2022-12-19T10:43:10;2.90;82.10
32293;DHT22;43233;48.608;8.838;2022-12-19T10:45:53;3.00;81.40
32293;DHT22;43233;48.608;8.838;2022-12-19T10:48:22;3.10;80.90
32293;DHT22;43233;48.608;8.838;2022-12-19T10:50:47;3.30;80.80
32293;DHT22;43233;48.608;8.838;2022-12-19T10:53:14;3.40;79.60
32293;DHT22;43233;48.608;8.838;2022-12-19T11:03:26;3.60;79.30
32293;DHT22;43233;48.608;8.838;2022-12-19T11:05:54;3.80;78.50
32293;DHT22;43233;48.608;8.838;2022-12-19T11:08:27;3.90;77.50
32293;DHT22;43233;48.608;8.838;2022-12-19T11:11:08;4.00;76.70
32293;DHT22;43233;48.608;8.838;2022-12-19T11:16:05;3.90;76.70
32293;DHT22;43233;48.608;8.838;2022-12-19T11:18:43;3.90;77.00
32293;DHT22;43233;48.608;8.838;2022-12-19T11:24:05;4.20;76.60
32293;DHT22;43233;48.608;8.838;2022-12-19T11:26:42;4.20;75.70
32293;DHT22;43233;48.608;8.838;2022-12-19T11:32:00;4.30;74.40
32293;DHT22;43233;48.608;8.838;2022-12-19T11:34:30;4.40;75.10
32293;DHT22;43233;48.608;8.838;2022-12-19T11:37:18;4.60;74.80
32293;DHT22;43233;48.608;8.838;2022-12-19T11:39:54;4.90;73.00
32293;DHT22;43233;48.608;8.838;2022-12-19T11:42:29;5.00;73.20
32293;DHT22;43233;48.608;8.838;2022-12-19T11:47:41;5.50;69.70
32293;DHT22;43233;48.608;8.838;2022-12-19T11:50:23;5.70;68.90
32293;DHT22;43233;48.608;8.838;2022-12-19T11:53:09;5.90;68.00
32293;DHT22;43233;48.608;8.838;2022-12-19T11:56:17;6.10;66.50
32293;DHT22;43233;48.608;8.838;2022-12-19T11:58:47;6.20;65.30
32293;DHT22;43233;48.608;8.838;2022-12-19T12:07:03;6.10;65.30
32293;DHT22;43233;48.608;8.838;2022-12-19T12:09:35;6.10;66.10
32293;DHT22;43233;48.608;8.838;2022-12-19T12:15:08;6.00;65.30
32293;DHT22;43233;48.608;8.838;2022-12-19T12:23:35;5.80;68.10
32293;DHT22;43233;48.608;8.838;2022-12-19T12:40:03;6.20;67.50
32293;DHT22;43233;48.608;8.838;2022-12-19T12:42:56;6.40;67.40
32293;DHT22;43233;48.608;8.838;2022-12-19T12:45:38;6.80;65.90
32293;DHT22;43233;48.608;8.838;2022-12-19T12:48:16;7.00;64.60
32293;DHT22;43233;48.608;8.838;2022-12-19T12:50:45;7.10;64.40
32293;DHT22;43233;48.608;8.838;2022-12-19T12:53:16;7.00;63.60
32293;DHT22;43233;48.608;8.838;2022-12-19T12:55:42;7.10;62.90
32293;DHT22;43233;48.608;8.838;2022-12-19T13:01:32;6.70;63.70
32293;DHT22;43233;48.608;8.838;2022-12-19T13:04:06;6.50;65.10
32293;DHT22;43233;48.608;8.838;2022-12-19T13:09:26;6.00;66.50
32293;DHT22;43233;48.608;8.838;2022-12-19T13:14:43;5.70;68.70
32293;DHT22;43233;48.608;8.838;2022-12-19T13:17:24;5.80;68.40
32293;DHT22;43233;48.608;8.838;2022-12-19T13:22:41;5.80;67.10
32293;DHT22;43233;48.608;8.838;2022-12-19T13:30:21;5.50;68.60
32293;DHT22;43233;48.608;8.838;2022-12-19T13:40:30;5.40;68.60
32293;DHT22;43233;48.608;8.838;2022-12-19T13:48:49;5.40;68.40
32293;DHT22;43233;48.608;8.838;2022-12-19T13:51:16;5.40;68.70
32293;DHT22;43233;48.608;8.838;2022-12-19T13:53:42;5.40;69.30
32293;DHT22;43233;48.608;8.838;2022-12-19T13:56:15;5.30;69.80
32293;DHT22;43233;48.608;8.838;2022-12-19T13:58:54;5.30;70.10
32293;DHT22;43233;48.608;8.838;2022-12-19T14:01:26;5.30;70.40
32293;DHT22;43233;48.608;8.838;2022-12-19T14:03:54;5.30;70.30
32293;DHT22;43233;48.608;8.838;2022-12-19T14:06:25;5.30;70.40
32293;DHT22;43233;48.608;8.838;2022-12-19T14:08:54;5.40;70.60
32293;DHT22;43233;48.608;8.838;2022-12-19T14:11:22;5.40;70.40
32293;DHT22;43233;48.608;8.838;2022-12-19T14:13:52;5.50;70.40
32293;DHT22;43233;48.608;8.838;2022-12-19T14:16:38;5.40;70.40
32293;DHT22;43233;48.608;8.838;2022-12-19T14:19:25;5.40;70.20
32293;DHT22;43233;48.608;8.838;2022-12-19T14:21:52;5.40;70.50
32293;DHT22;43233;48.608;8.838;2022-12-19T14:24:20;5.30;70.40
32293;DHT22;43233;48.608;8.838;2022-12-19T14:26:49;5.30;70.60
32293;DHT22;43233;48.608;8.838;2022-12-19T14:29:23;5.30;70.60
32293;DHT22;43233;48.608;8.838;2022-12-19T14:31:51;5.30;71.20
32293;DHT22;43233;48.608;8.838;2022-12-19T14:34:25;5.30;70.70
32293;DHT22;43233;48.608;8.838;2022-12-19T14:36:54;5.30;69.90
32293;DHT22;43233;48.608;8.838;2022-12-19T14:39:23;5.30;69.90
32293;DHT22;43233;48.608;8.838;2022-12-19T14:41:51;5.30;70.00
32293;DHT22;43233;48.608;8.838;2022-12-19T14:44:45;5.10;70.50
32293;DHT22;43233;48.608;8.838;2022-12-19T14:47:19;5.00;70.80
32293;DHT22;43233;48.608;8.838;2022-12-19T14:49:47;5.10;70.80
32293;DHT22;43233;48.608;8.838;2022-12-19T14:52:32;5.00;70.60
32293;DHT22;43233;48.608;8.838;2022-12-19T14:57:46;4.90;71.50
32293;DHT22;43233;48.608;8.838;2022-12-19T15:00:27;4.80;72.20
32293;DHT22;43233;48.608;8.838;2022-12-19T15:02:54;4.80;71.90
32293;DHT22;43233;48.608;8.838;2022-12-19T15:05:20;4.60;72.40
32293;DHT22;43233;48.608;8.838;2022-12-19T15:07:49;4.60;72.50
32293;DHT22;43233;48.608;8.838;2022-12-19T15:10:18;4.50;72.80
32293;DHT22;43233;48.608;8.838;2022-12-19T15:13:21;4.40;73.20
32293;DHT22;43233;48.608;8.838;2022-12-19T15:16:02;4.30;73.60
32293;DHT22;43233;48.608;8.838;2022-12-19T15:21:09;4.10;75.10
32293;DHT22;43233;48.608;8.838;2022-12-19T15:23:34;4.00;75.20
32293;DHT22;43233;48.608;8.838;2022-12-19T15:26:05;3.90;75.50
32293;DHT22;43233;48.608;8.838;2022-12-19T15:31:24;3.80;76.20
32293;DHT22;43233;48.608;8.838;2022-12-19T15:33:51;3.80;76.50
32293;DHT22;43233;48.608;8.838;2022-12-19T15:36:17;3.80;76.70
32293;DHT22;43233;48.608;8.838;2022-12-19T15:38:42;3.80;77.10
32293;DHT22;43233;48.608;8.838;2022-12-19T15:41:20;3.80;77.30
32293;DHT22;43233;48.608;8.838;2022-12-19T15:43:47;3.70;78.50
32293;DHT22;43233;48.608;8.838;2022-12-19T15:46:13;3.70;77.80
32293;DHT22;43233;48.608;8.838;2022-12-19T15:48:43;3.70;78.10
32293;DHT22;43233;48.608;8.838;2022-12-19T15:51:13;3.70;78.10
32293;DHT22;43233;48.608;8.838;2022-12-19T15:53:41;3.70;78.20
32293;DHT22;43233;48.608;8.838;2022-12-19T15:58:47;3.70;78.20
32293;DHT22;43233;48.608;8.838;2022-12-19T16:01:13;3.70;78.50
32293;DHT22;43233;48.608;8.838;2022-12-19T16:03:39;3.70;78.30
32293;DHT22;43233;48.608;8.838;2022-12-19T16:06:14;3.70;78.50
32293;DHT22;43233;48.608;8.838;2022-12-19T16:08:40;3.70;78.60
32293;DHT22;43233;48.608;8.838;2022-12-19T16:11:20;3.80;78.80
32293;DHT22;43233;48.608;8.838;2022-12-19T16:13:55;3.80;78.50
32293;DHT22;43233;48.608;8.838;2022-12-19T16:16:21;3.80;77.70
32293;DHT22;43233;48.608;8.838;2022-12-19T16:18:47;3.80;77.80
32293;DHT22;43233;48.608;8.838;2022-12-19T16:21:21;3.80;77.80
32293;DHT22;43233;48.608;8.838;2022-12-19T16:23:48;3.80;77.80
32293;DHT22;43233;48.608;8.838;2022-12-19T16:26:34;3.70;78.00
32293;DHT22;43233;48.608;8.838;2022-12-19T16:29:00;3.70;78.30
32293;DHT22;43233;48.608;8.838;2022-12-19T16:31:26;3.60;78.50
32293;DHT22;43233;48.608;8.838;2022-12-19T16:33:52;3.60;78.70
32293;DHT22;43233;48.608;8.838;2022-12-19T16:36:18;3.60;78.70
32293;DHT22;43233;48.608;8.838;2022-12-19T16:38:44;3.70;78.50
32293;DHT22;43233;48.608;8.838;2022-12-19T16:41:17;3.70;78.40
32293;DHT22;43233;48.608;8.838;2022-12-19T16:43:44;3.60;77.90
32293;DHT22;43233;48.608;8.838;2022-12-19T16:46:18;3.60;78.30
32293;DHT22;43233;48.608;8.838;2022-12-19T16:48:45;3.50;78.30
32293;DHT22;43233;48.608;8.838;2022-12-19T16:51:21;3.50;78.50
32293;DHT22;43233;48.608;8.838;2022-12-19T16:53:49;3.40;78.50
32293;DHT22;43233;48.608;8.838;2022-12-19T16:56:36;3.40;79.00
32293;DHT22;43233;48.608;8.838;2022-12-19T16:59:15;3.40;79.50
32293;DHT22;43233;48.608;8.838;2022-12-19T17:01:43;3.40;80.50
32293;DHT22;43233;48.608;8.838;2022-12-19T17:04:13;3.40;80.10
32293;DHT22;43233;48.608;8.838;2022-12-19T17:06:39;3.40;79.70
32293;DHT22;43233;48.608;8.838;2022-12-19T17:09:05;3.40;79.90
32293;DHT22;43233;48.608;8.838;2022-12-19T17:11:31;3.30;80.30
32293;DHT22;43233;48.608;8.838;2022-12-19T17:14:13;3.20;83.30
32293;DHT22;43233;48.608;8.838;2022-12-19T17:16:40;3.00;85.60
32293;DHT22;43233;48.608;8.838;2022-12-19T17:19:09;2.90;86.60
32293;DHT22;43233;48.608;8.838;2022-12-19T17:21:35;2.80;85.40
32293;DHT22;43233;48.608;8.838;2022-12-19T17:24:04;2.80;85.60
32293;DHT22;43233;48.608;8.838;2022-12-19T17:26:30;2.90;85.60
32293;DHT22;43233;48.608;8.838;2022-12-19T17:28:55;3.00;85.50
32293;DHT22;43233;48.608;8.838;2022-12-19T17:31:25;3.00;85.00
32293;DHT22;43233;48.608;8.838;2022-12-19T17:33:51;3.00;84.90
32293;DHT22;43233;48.608;8.838;2022-12-19T17:36:19;3.10;85.00
32293;DHT22;43233;48.608;8.838;2022-12-19T17:38:44;3.10;84.30
32293;DHT22;43233;48.608;8.838;2022-12-19T17:41:14;3.00;84.70
32293;DHT22;43233;48.608;8.838;2022-12-19T17:43:41;3.00;85.00
32293;DHT22;43233;48.608;8.838;2022-12-19T17:46:17;2.90;85.60
32293;DHT22;43233;48.608;8.838;2022-12-19T17:48:45;2.90;85.50
32293;DHT22;43233;48.608;8.838;2022-12-19T17:51:14;2.90;85.20
32293;DHT22;43233;48.608;8.838;2022-12-19T17:53:40;2.90;84.90
32293;DHT22;43233;48.608;8.838;2022-12-19T17:56:15;3.00;84.30
32293;DHT22;43233;48.608;8.838;2022-12-19T17:58:41;3.00;83.70
32293;DHT22;43233;48.608;8.838;2022-12-19T18:01:21;3.00;83.80
32293;DHT22;43233;48.608;8.838;2022-12-19T18:03:49;3.00;83.50
32293;DHT22;43233;48.608;8.838;2022-12-19T18:06:15;3.00;83.70
32293;DHT22;43233;48.608;8.838;2022-12-19T18:08:41;3.00;83.80
32293;DHT22;43233;48.608;8.838;2022-12-19T18:11:19;2.90;84.20
32293;DHT22;43233;48.608;8.838;2022-12-19T18:13:45;2.90;85.40
32293;DHT22;43233;48.608;8.838;2022-12-19T18:16:13;2.90;86.20
32293;DHT22;43233;48.608;8.838;2022-12-19T18:18:39;2.90;86.30
32293;DHT22;43233;48.608;8.838;2022-12-19T18:21:05;2.90;86.10
32293;DHT22;43233;48.608;8.838;2022-12-19T18:23:32;3.00;86.20
32293;DHT22;43233;48.608;8.838;2022-12-19T18:25:58;3.20;85.50
32293;DHT22;43233;48.608;8.838;2022-12-19T18:28:25;3.20;84.80